Tecate, CA (91987)

3:48 PM PST on February 11, 2016 (GMT -0800)
PROTECCION CIVIL BC (TECATE) | | Change Station
CLOSE
Current Station
Personal Weather Station
Location: Tecate, BAJA CALIFORNIA
Elevation: 1739 ft
Nearby Weather Stations

Elev 1739 ft 32.57 °N, 116.61 °W | Updated 10 minutes ago

Clear
Clear
81.6 °F
Feels Like 79 °F
N
0.0
Wind Variable Wind from SW
Gusts 7.0 mph

Today
High -- | Low -- °F
--% Chance of Precip.
Yesterday
High -- | Low -- °F
Precip. -- in
Pressure 30.05 in
Visibility 10.0 miles
Clouds Clear
Heat Index 79 °F
Dew Point 31 °F
Humidity 16%
Rainfall 0.00 in
Snow Depth Not available.
6:33 AM 5:28 PM
Waxing Crescent, 15% visible
METAR KSDM 112253Z 27007KT 10SM CLR 26/M02 A3006 RMK AO2 SLP174 T02561017
Pressure 30.05 in
Visibility 10.0 miles
Clouds Clear
Heat Index 79 °F
Dew Point 31 °F
Humidity 16%
Rainfall 0.00 in
Snow Depth Not available.
6:33 AM 5:28 PM
Waxing Crescent, 15% visible
METAR KSDM 112253Z 27007KT 10SM CLR 26/M02 A3006 RMK AO2 SLP174 T02561017

10-Day Weather Forecast

Almanac

Astronomy

Feb. 11, 2016 Rise Set
Actual Time
Civil Twilight
Nautical Twilight
Astronomical Twilight
Moon
Length of Visible Light
Length of Day
Tomorrow will be .
, % of the Moon is Illuminated

Today's Extremes

State Highs State Lows

Community

WunderPhotos

Upload Photos

1,892,180 photos uploaded!

WunderBlog® & News

Nearby

Air Quality

  Air Quality AQ Index Pollutant
Not available.

Snow Depth

Station Depth Elevation

Earthquake Activity

City Distance Mag. Time & Date
Minimum magnitude displayed is 2.5.

Coastal Water Temperatures

Place Temperature

Stations

Nearby Weather Stations

Station Location Temp. Windchill Dew Point Humidity Wind Precip. Elev Updated Type
                   

Watches & Warnings

There are currently no watches in effect.